sensor_id;sensor_type;location;lat;lon;timestamp;P1;durP1;ratioP1;P2;durP2;ratioP2
43650;SDS011;29247;50.944;5.382;2023-08-30T00:01:09;9.15;;;5.95;;
43650;SDS011;29247;50.944;5.382;2023-08-30T00:03:36;7.45;;;5.38;;
43650;SDS011;29247;50.944;5.382;2023-08-30T00:06:02;8.07;;;5.38;;
43650;SDS011;29247;50.944;5.382;2023-08-30T00:08:29;7.90;;;5.40;;
43650;SDS011;29247;50.944;5.382;2023-08-30T00:10:57;8.23;;;5.55;;
43650;SDS011;29247;50.944;5.382;2023-08-30T00:13:24;4.18;;;3.75;;
43650;SDS011;29247;50.944;5.382;2023-08-30T00:16:00;8.65;;;5.25;;
43650;SDS011;29247;50.944;5.382;2023-08-30T00:18:27;6.55;;;5.00;;
43650;SDS011;29247;50.944;5.382;2023-08-30T00:20:53;11.63;;;5.90;;
43650;SDS011;29247;50.944;5.382;2023-08-30T00:23:19;6.28;;;5.50;;
43650;SDS011;29247;50.944;5.382;2023-08-30T00:25:44;8.65;;;5.75;;
43650;SDS011;29247;50.944;5.382;2023-08-30T00:28:10;8.65;;;5.57;;
43650;SDS011;29247;50.944;5.382;2023-08-30T00:30:36;7.38;;;5.63;;
43650;SDS011;29247;50.944;5.382;2023-08-30T00:33:01;8.60;;;5.47;;
43650;SDS011;29247;50.944;5.382;2023-08-30T00:35:27;6.72;;;4.85;;
43650;SDS011;29247;50.944;5.382;2023-08-30T00:37:52;8.82;;;5.53;;
43650;SDS011;29247;50.944;5.382;2023-08-30T00:40:22;6.80;;;5.88;;
43650;SDS011;29247;50.944;5.382;2023-08-30T00:42:49;7.07;;;5.53;;
43650;SDS011;29247;50.944;5.382;2023-08-30T00:45:14;10.05;;;6.13;;
43650;SDS011;29247;50.944;5.382;2023-08-30T00:47:40;8.48;;;5.43;;
43650;SDS011;29247;50.944;5.382;2023-08-30T00:50:06;9.55;;;6.28;;
43650;SDS011;29247;50.944;5.382;2023-08-30T00:52:34;8.50;;;5.90;;
43650;SDS011;29247;50.944;5.382;2023-08-30T00:55:00;10.02;;;7.03;;
43650;SDS011;29247;50.944;5.382;2023-08-30T00:57:26;12.13;;;7.35;;
43650;SDS011;29247;50.944;5.382;2023-08-30T00:59:52;12.55;;;7.32;;
43650;SDS011;29247;50.944;5.382;2023-08-30T01:02:19;9.40;;;6.32;;
43650;SDS011;29247;50.944;5.382;2023-08-30T01:04:45;13.30;;;7.63;;
43650;SDS011;29247;50.944;5.382;2023-08-30T01:07:10;8.50;;;6.57;;
43650;SDS011;29247;50.944;5.382;2023-08-30T01:09:36;13.23;;;6.47;;
43650;SDS011;29247;50.944;5.382;2023-08-30T01:12:15;9.30;;;6.90;;
43650;SDS011;29247;50.944;5.382;2023-08-30T01:14:58;8.57;;;6.68;;
43650;SDS011;29247;50.944;5.382;2023-08-30T01:17:28;10.95;;;6.95;;
43650;SDS011;29247;50.944;5.382;2023-08-30T01:20:05;12.90;;;8.48;;
43650;SDS011;29247;50.944;5.382;2023-08-30T01:28:21;12.93;;;8.20;;
43650;SDS011;29247;50.944;5.382;2023-08-30T01:30:51;11.38;;;8.02;;
43650;SDS011;29247;50.944;5.382;2023-08-30T01:33:22;13.48;;;8.32;;
43650;SDS011;29247;50.944;5.382;2023-08-30T01:35:51;11.85;;;7.78;;
43650;SDS011;29247;50.944;5.382;2023-08-30T01:38:20;8.98;;;6.80;;
43650;SDS011;29247;50.944;5.382;2023-08-30T01:40:46;9.70;;;7.18;;
43650;SDS011;29247;50.944;5.382;2023-08-30T01:43:13;10.45;;;7.50;;
43650;SDS011;29247;50.944;5.382;2023-08-30T01:45:42;14.05;;;7.88;;
43650;SDS011;29247;50.944;5.382;2023-08-30T01:48:09;13.57;;;8.75;;
43650;SDS011;29247;50.944;5.382;2023-08-30T01:50:40;10.43;;;7.90;;
43650;SDS011;29247;50.944;5.382;2023-08-30T01:53:10;12.43;;;7.90;;
43650;SDS011;29247;50.944;5.382;2023-08-30T01:55:37;11.48;;;8.70;;
43650;SDS011;29247;50.944;5.382;2023-08-30T01:58:03;12.77;;;8.25;;
43650;SDS011;29247;50.944;5.382;2023-08-30T02:00:29;17.17;;;9.10;;
43650;SDS011;29247;50.944;5.382;2023-08-30T02:02:56;12.00;;;8.20;;
43650;SDS011;29247;50.944;5.382;2023-08-30T02:05:24;12.38;;;8.48;;
43650;SDS011;29247;50.944;5.382;2023-08-30T02:07:51;13.85;;;8.52;;
43650;SDS011;29247;50.944;5.382;2023-08-30T02:10:31;11.93;;;8.95;;
43650;SDS011;29247;50.944;5.382;2023-08-30T02:13:03;10.38;;;7.43;;
43650;SDS011;29247;50.944;5.382;2023-08-30T02:15:33;9.57;;;8.05;;
43650;SDS011;29247;50.944;5.382;2023-08-30T02:20:29;12.68;;;7.68;;
43650;SDS011;29247;50.944;5.382;2023-08-30T02:22:58;10.18;;;7.95;;
43650;SDS011;29247;50.944;5.382;2023-08-30T02:25:24;10.60;;;7.88;;
43650;SDS011;29247;50.944;5.382;2023-08-30T02:27:50;12.57;;;7.95;;
43650;SDS011;29247;50.944;5.382;2023-08-30T02:30:16;14.10;;;8.75;;
43650;SDS011;29247;50.944;5.382;2023-08-30T02:32:43;12.48;;;8.57;;
43650;SDS011;29247;50.944;5.382;2023-08-30T02:35:09;10.90;;;7.93;;
43650;SDS011;29247;50.944;5.382;2023-08-30T02:37:37;9.90;;;7.90;;
43650;SDS011;29247;50.944;5.382;2023-08-30T02:40:05;15.13;;;8.95;;
43650;SDS011;29247;50.944;5.382;2023-08-30T02:42:36;15.27;;;9.10;;
43650;SDS011;29247;50.944;5.382;2023-08-30T02:45:04;14.32;;;9.40;;
43650;SDS011;29247;50.944;5.382;2023-08-30T02:47:30;15.07;;;8.90;;
43650;SDS011;29247;50.944;5.382;2023-08-30T02:49:58;13.65;;;9.30;;
43650;SDS011;29247;50.944;5.382;2023-08-30T02:52:26;11.93;;;8.57;;
43650;SDS011;29247;50.944;5.382;2023-08-30T02:54:52;12.40;;;8.25;;
43650;SDS011;29247;50.944;5.382;2023-08-30T02:57:17;12.07;;;8.20;;
43650;SDS011;29247;50.944;5.382;2023-08-30T02:59:43;11.40;;;9.32;;
43650;SDS011;29247;50.944;5.382;2023-08-30T03:02:11;13.18;;;8.82;;
43650;SDS011;29247;50.944;5.382;2023-08-30T03:04:36;12.05;;;8.85;;
43650;SDS011;29247;50.944;5.382;2023-08-30T03:07:03;12.85;;;8.77;;
43650;SDS011;29247;50.944;5.382;2023-08-30T03:09:29;14.82;;;9.75;;
43650;SDS011;29247;50.944;5.382;2023-08-30T03:11:54;12.98;;;8.88;;
43650;SDS011;29247;50.944;5.382;2023-08-30T03:14:20;18.30;;;10.60;;
43650;SDS011;29247;50.944;5.382;2023-08-30T03:16:46;13.40;;;8.70;;
43650;SDS011;29247;50.944;5.382;2023-08-30T03:19:12;16.85;;;9.18;;
43650;SDS011;29247;50.944;5.382;2023-08-30T03:21:42;14.77;;;9.35;;
43650;SDS011;29247;50.944;5.382;2023-08-30T03:24:10;16.83;;;9.10;;
43650;SDS011;29247;50.944;5.382;2023-08-30T03:26:35;14.23;;;9.60;;
43650;SDS011;29247;50.944;5.382;2023-08-30T03:29:01;19.05;;;9.60;;
43650;SDS011;29247;50.944;5.382;2023-08-30T03:31:28;16.23;;;9.18;;
43650;SDS011;29247;50.944;5.382;2023-08-30T03:33:56;15.10;;;8.77;;
43650;SDS011;29247;50.944;5.382;2023-08-30T03:36:22;12.82;;;8.25;;
43650;SDS011;29247;50.944;5.382;2023-08-30T03:38:47;13.38;;;9.10;;
43650;SDS011;29247;50.944;5.382;2023-08-30T03:41:13;14.45;;;9.70;;
43650;SDS011;29247;50.944;5.382;2023-08-30T03:43:39;11.95;;;8.52;;
43650;SDS011;29247;50.944;5.382;2023-08-30T03:46:05;15.25;;;9.68;;
43650;SDS011;29247;50.944;5.382;2023-08-30T03:48:36;17.85;;;9.50;;
43650;SDS011;29247;50.944;5.382;2023-08-30T03:51:02;13.90;;;9.25;;
43650;SDS011;29247;50.944;5.382;2023-08-30T03:53:27;12.77;;;8.88;;
43650;SDS011;29247;50.944;5.382;2023-08-30T03:55:56;14.05;;;9.90;;
43650;SDS011;29247;50.944;5.382;2023-08-30T03:58:21;15.90;;;10.63;;
43650;SDS011;29247;50.944;5.382;2023-08-30T04:00:49;16.45;;;10.63;;
43650;SDS011;29247;50.944;5.382;2023-08-30T04:03:15;16.40;;;9.25;;
43650;SDS011;29247;50.944;5.382;2023-08-30T04:05:41;16.73;;;10.65;;
43650;SDS011;29247;50.944;5.382;2023-08-30T04:08:07;14.98;;;10.07;;
43650;SDS011;29247;50.944;5.382;2023-08-30T04:10:36;13.88;;;9.65;;
43650;SDS011;29247;50.944;5.382;2023-08-30T04:13:05;14.93;;;9.63;;
43650;SDS011;29247;50.944;5.382;2023-08-30T04:15:35;14.85;;;10.18;;
43650;SDS011;29247;50.944;5.382;2023-08-30T04:18:01;13.27;;;9.88;;
43650;SDS011;29247;50.944;5.382;2023-08-30T04:20:30;15.93;;;10.13;;
43650;SDS011;29247;50.944;5.382;2023-08-30T04:22:57;12.57;;;9.35;;
43650;SDS011;29247;50.944;5.382;2023-08-30T04:25:26;14.48;;;10.57;;
43650;SDS011;29247;50.944;5.382;2023-08-30T04:27:52;16.13;;;10.60;;
43650;SDS011;29247;50.944;5.382;2023-08-30T04:30:20;18.10;;;9.82;;
43650;SDS011;29247;50.944;5.382;2023-08-30T04:35:18;16.50;;;10.93;;
43650;SDS011;29247;50.944;5.382;2023-08-30T04:37:46;14.45;;;10.60;;
43650;SDS011;29247;50.944;5.382;2023-08-30T04:40:13;17.63;;;11.98;;
43650;SDS011;29247;50.944;5.382;2023-08-30T04:42:39;16.15;;;10.40;;
43650;SDS011;29247;50.944;5.382;2023-08-30T04:45:05;18.10;;;10.70;;
43650;SDS011;29247;50.944;5.382;2023-08-30T04:47:32;16.05;;;9.75;;
43650;SDS011;29247;50.944;5.382;2023-08-30T04:49:57;14.20;;;10.13;;
43650;SDS011;29247;50.944;5.382;2023-08-30T04:52:23;13.25;;;9.02;;
43650;SDS011;29247;50.944;5.382;2023-08-30T04:54:52;17.38;;;10.23;;
43650;SDS011;29247;50.944;5.382;2023-08-30T04:57:17;15.27;;;10.88;;
43650;SDS011;29247;50.944;5.382;2023-08-30T04:59:46;13.55;;;9.52;;
43650;SDS011;29247;50.944;5.382;2023-08-30T05:02:16;18.40;;;11.10;;
43650;SDS011;29247;50.944;5.382;2023-08-30T05:04:44;16.02;;;10.00;;
43650;SDS011;29247;50.944;5.382;2023-08-30T05:07:09;13.18;;;9.80;;
43650;SDS011;29247;50.944;5.382;2023-08-30T05:09:35;14.63;;;10.15;;
43650;SDS011;29247;50.944;5.382;2023-08-30T05:12:05;15.65;;;11.00;;
43650;SDS011;29247;50.944;5.382;2023-08-30T05:14:34;16.83;;;10.80;;
43650;SDS011;29247;50.944;5.382;2023-08-30T05:17:02;15.80;;;11.15;;
43650;SDS011;29247;50.944;5.382;2023-08-30T05:19:32;18.02;;;10.75;;
43650;SDS011;29247;50.944;5.382;2023-08-30T05:24:25;14.98;;;9.85;;
43650;SDS011;29247;50.944;5.382;2023-08-30T05:26:53;14.23;;;10.45;;
43650;SDS011;29247;50.944;5.382;2023-08-30T05:29:19;18.08;;;11.00;;
43650;SDS011;29247;50.944;5.382;2023-08-30T05:31:44;14.90;;;9.85;;
43650;SDS011;29247;50.944;5.382;2023-08-30T05:34:12;18.95;;;11.07;;
43650;SDS011;29247;50.944;5.382;2023-08-30T05:36:40;13.00;;;8.88;;
43650;SDS011;29247;50.944;5.382;2023-08-30T05:39:08;14.90;;;9.32;;
43650;SDS011;29247;50.944;5.382;2023-08-30T05:41:34;12.77;;;8.38;;
43650;SDS011;29247;50.944;5.382;2023-08-30T05:44:02;12.68;;;8.30;;
43650;SDS011;29247;50.944;5.382;2023-08-30T05:46:32;7.50;;;6.70;;
43650;SDS011;29247;50.944;5.382;2023-08-30T05:48:58;10.32;;;7.28;;
43650;SDS011;29247;50.944;5.382;2023-08-30T05:51:25;8.63;;;7.15;;
43650;SDS011;29247;50.944;5.382;2023-08-30T05:53:51;12.57;;;7.70;;
43650;SDS011;29247;50.944;5.382;2023-08-30T05:56:19;9.55;;;6.35;;
43650;SDS011;29247;50.944;5.382;2023-08-30T05:58:45;12.13;;;6.20;;
43650;SDS011;29247;50.944;5.382;2023-08-30T06:01:10;11.13;;;7.38;;
43650;SDS011;29247;50.944;5.382;2023-08-30T06:03:36;7.45;;;6.35;;
43650;SDS011;29247;50.944;5.382;2023-08-30T06:06:01;8.65;;;6.22;;
43650;SDS011;29247;50.944;5.382;2023-08-30T06:08:28;7.95;;;5.30;;
43650;SDS011;29247;50.944;5.382;2023-08-30T06:10:54;8.00;;;6.20;;
43650;SDS011;29247;50.944;5.382;2023-08-30T06:13:19;8.95;;;5.47;;
43650;SDS011;29247;50.944;5.382;2023-08-30T06:15:49;7.95;;;5.90;;
43650;SDS011;29247;50.944;5.382;2023-08-30T06:18:15;8.65;;;4.72;;
43650;SDS011;29247;50.944;5.382;2023-08-30T06:20:41;6.13;;;4.55;;
43650;SDS011;29247;50.944;5.382;2023-08-30T06:23:07;6.57;;;4.70;;
43650;SDS011;29247;50.944;5.382;2023-08-30T06:25:35;7.40;;;5.10;;
43650;SDS011;29247;50.944;5.382;2023-08-30T06:28:01;6.90;;;4.70;;
43650;SDS011;29247;50.944;5.382;2023-08-30T06:30:28;5.97;;;4.32;;
43650;SDS011;29247;50.944;5.382;2023-08-30T06:32:54;8.23;;;5.07;;
43650;SDS011;29247;50.944;5.382;2023-08-30T06:35:23;8.82;;;4.25;;
43650;SDS011;29247;50.944;5.382;2023-08-30T06:37:49;6.35;;;3.85;;
43650;SDS011;29247;50.944;5.382;2023-08-30T06:40:14;6.88;;;3.80;;
43650;SDS011;29247;50.944;5.382;2023-08-30T06:42:42;6.88;;;3.50;;
43650;SDS011;29247;50.944;5.382;2023-08-30T06:45:08;5.47;;;3.58;;
43650;SDS011;29247;50.944;5.382;2023-08-30T06:47:33;6.30;;;3.58;;
43650;SDS011;29247;50.944;5.382;2023-08-30T06:50:01;4.90;;;2.75;;
43650;SDS011;29247;50.944;5.382;2023-08-30T06:52:29;4.35;;;2.90;;
43650;SDS011;29247;50.944;5.382;2023-08-30T06:54:55;6.32;;;3.08;;
43650;SDS011;29247;50.944;5.382;2023-08-30T06:57:20;4.00;;;2.38;;
43650;SDS011;29247;50.944;5.382;2023-08-30T06:59:46;5.15;;;2.60;;
43650;SDS011;29247;50.944;5.382;2023-08-30T07:02:14;6.45;;;2.40;;
43650;SDS011;29247;50.944;5.382;2023-08-30T07:04:40;4.45;;;2.03;;
43650;SDS011;29247;50.944;5.382;2023-08-30T07:07:09;4.20;;;2.30;;
43650;SDS011;29247;50.944;5.382;2023-08-30T07:09:34;5.63;;;2.17;;
43650;SDS011;29247;50.944;5.382;2023-08-30T07:12:00;3.28;;;2.10;;
43650;SDS011;29247;50.944;5.382;2023-08-30T07:14:26;3.53;;;2.10;;
43650;SDS011;29247;50.944;5.382;2023-08-30T07:16:53;3.65;;;2.22;;
43650;SDS011;29247;50.944;5.382;2023-08-30T07:19:22;3.67;;;2.40;;
43650;SDS011;29247;50.944;5.382;2023-08-30T07:21:47;3.20;;;2.13;;
43650;SDS011;29247;50.944;5.382;2023-08-30T07:24:17;4.28;;;2.13;;
43650;SDS011;29247;50.944;5.382;2023-08-30T07:26:47;3.58;;;2.10;;
43650;SDS011;29247;50.944;5.382;2023-08-30T07:29:13;2.97;;;1.80;;
43650;SDS011;29247;50.944;5.382;2023-08-30T07:31:38;4.38;;;1.95;;
43650;SDS011;29247;50.944;5.382;2023-08-30T07:34:06;5.28;;;1.73;;
43650;SDS011;29247;50.944;5.382;2023-08-30T07:36:33;6.30;;;2.17;;
43650;SDS011;29247;50.944;5.382;2023-08-30T07:39:01;3.42;;;2.40;;
43650;SDS011;29247;50.944;5.382;2023-08-30T07:41:27;4.85;;;2.17;;
43650;SDS011;29247;50.944;5.382;2023-08-30T07:43:55;3.28;;;2.03;;
43650;SDS011;29247;50.944;5.382;2023-08-30T07:46:20;3.40;;;1.80;;
43650;SDS011;29247;50.944;5.382;2023-08-30T07:48:46;2.08;;;1.70;;
43650;SDS011;29247;50.944;5.382;2023-08-30T07:51:14;5.55;;;1.90;;
43650;SDS011;29247;50.944;5.382;2023-08-30T07:53:40;5.57;;;2.10;;
43650;SDS011;29247;50.944;5.382;2023-08-30T07:56:05;4.13;;;1.90;;
43650;SDS011;29247;50.944;5.382;2023-08-30T07:58:33;4.40;;;2.03;;
43650;SDS011;29247;50.944;5.382;2023-08-30T08:00:59;3.25;;;1.90;;
43650;SDS011;29247;50.944;5.382;2023-08-30T08:03:25;3.35;;;1.80;;
43650;SDS011;29247;50.944;5.382;2023-08-30T08:05:53;4.00;;;2.05;;
43650;SDS011;29247;50.944;5.382;2023-08-30T08:08:19;2.95;;;2.35;;
43650;SDS011;29247;50.944;5.382;2023-08-30T08:10:46;4.40;;;1.80;;
43650;SDS011;29247;50.944;5.382;2023-08-30T08:13:12;2.67;;;1.98;;
43650;SDS011;29247;50.944;5.382;2023-08-30T08:15:38;2.60;;;1.85;;
43650;SDS011;29247;50.944;5.382;2023-08-30T08:18:03;4.90;;;2.08;;
43650;SDS011;29247;50.944;5.382;2023-08-30T08:20:31;4.68;;;2.03;;
43650;SDS011;29247;50.944;5.382;2023-08-30T08:22:59;3.55;;;2.53;;
43650;SDS011;29247;50.944;5.382;2023-08-30T08:25:25;5.22;;;2.90;;
43650;SDS011;29247;50.944;5.382;2023-08-30T08:27:53;4.97;;;2.42;;
43650;SDS011;29247;50.944;5.382;2023-08-30T08:30:19;3.47;;;2.22;;
43650;SDS011;29247;50.944;5.382;2023-08-30T08:32:45;6.88;;;4.30;;
43650;SDS011;29247;50.944;5.382;2023-08-30T08:35:15;4.93;;;2.50;;
43650;SDS011;29247;50.944;5.382;2023-08-30T08:37:41;3.83;;;2.60;;
43650;SDS011;29247;50.944;5.382;2023-08-30T08:40:07;3.85;;;2.38;;
43650;SDS011;29247;50.944;5.382;2023-08-30T08:42:36;4.47;;;2.80;;
43650;SDS011;29247;50.944;5.382;2023-08-30T08:45:03;3.97;;;2.38;;
43650;SDS011;29247;50.944;5.382;2023-08-30T08:47:29;6.28;;;2.47;;
43650;SDS011;29247;50.944;5.382;2023-08-30T08:49:56;5.20;;;2.50;;
43650;SDS011;29247;50.944;5.382;2023-08-30T08:52:23;5.78;;;2.80;;
43650;SDS011;29247;50.944;5.382;2023-08-30T08:54:49;5.82;;;2.72;;
43650;SDS011;29247;50.944;5.382;2023-08-30T08:57:16;5.78;;;2.80;;
43650;SDS011;29247;50.944;5.382;2023-08-30T08:59:43;3.20;;;2.80;;
43650;SDS011;29247;50.944;5.382;2023-08-30T09:02:10;3.25;;;2.58;;
43650;SDS011;29247;50.944;5.382;2023-08-30T09:04:40;6.35;;;3.10;;
43650;SDS011;29247;50.944;5.382;2023-08-30T09:07:08;4.40;;;2.60;;
43650;SDS011;29247;50.944;5.382;2023-08-30T09:09:37;3.92;;;2.83;;
43650;SDS011;29247;50.944;5.382;2023-08-30T09:12:02;7.43;;;2.75;;
43650;SDS011;29247;50.944;5.382;2023-08-30T09:14:31;3.05;;;2.70;;
43650;SDS011;29247;50.944;5.382;2023-08-30T09:17:00;4.30;;;3.05;;
43650;SDS011;29247;50.944;5.382;2023-08-30T09:19:27;6.78;;;3.03;;
43650;SDS011;29247;50.944;5.382;2023-08-30T09:21:56;4.20;;;2.33;;
43650;SDS011;29247;50.944;5.382;2023-08-30T09:24:23;4.22;;;2.20;;
43650;SDS011;29247;50.944;5.382;2023-08-30T09:26:50;3.55;;;2.35;;
43650;SDS011;29247;50.944;5.382;2023-08-30T09:29:17;3.03;;;2.03;;
43650;SDS011;29247;50.944;5.382;2023-08-30T09:31:44;4.20;;;2.30;;
43650;SDS011;29247;50.944;5.382;2023-08-30T09:34:10;4.68;;;2.63;;
43650;SDS011;29247;50.944;5.382;2023-08-30T09:36:42;2.83;;;1.98;;
43650;SDS011;29247;50.944;5.382;2023-08-30T09:39:16;3.47;;;2.13;;
43650;SDS011;29247;50.944;5.382;2023-08-30T09:44:14;5.22;;;2.40;;
43650;SDS011;29247;50.944;5.382;2023-08-30T09:46:47;3.93;;;2.40;;
43650;SDS011;29247;50.944;5.382;2023-08-30T09:49:18;3.85;;;2.30;;
43650;SDS011;29247;50.944;5.382;2023-08-30T09:51:47;4.03;;;2.50;;
43650;SDS011;29247;50.944;5.382;2023-08-30T09:54:14;2.90;;;2.10;;
43650;SDS011;29247;50.944;5.382;2023-08-30T09:56:43;2.97;;;2.35;;
43650;SDS011;29247;50.944;5.382;2023-08-30T09:59:13;2.90;;;1.90;;
43650;SDS011;29247;50.944;5.382;2023-08-30T10:01:42;7.57;;;2.35;;
43650;SDS011;29247;50.944;5.382;2023-08-30T10:04:09;3.75;;;2.58;;
43650;SDS011;29247;50.944;5.382;2023-08-30T10:06:38;4.47;;;2.47;;
43650;SDS011;29247;50.944;5.382;2023-08-30T10:09:08;3.13;;;1.92;;
43650;SDS011;29247;50.944;5.382;2023-08-30T10:11:37;3.95;;;2.30;;
43650;SDS011;29247;50.944;5.382;2023-08-30T10:14:04;3.35;;;2.38;;
43650;SDS011;29247;50.944;5.382;2023-08-30T10:16:32;5.25;;;2.38;;
43650;SDS011;29247;50.944;5.382;2023-08-30T10:19:07;3.75;;;2.55;;
43650;SDS011;29247;50.944;5.382;2023-08-30T10:21:35;2.72;;;2.17;;
43650;SDS011;29247;50.944;5.382;2023-08-30T10:24:03;4.32;;;2.40;;
43650;SDS011;29247;50.944;5.382;2023-08-30T10:26:31;4.05;;;2.40;;
43650;SDS011;29247;50.944;5.382;2023-08-30T10:29:00;4.22;;;2.75;;
43650;SDS011;29247;50.944;5.382;2023-08-30T10:33:54;4.78;;;1.80;;
43650;SDS011;29247;50.944;5.382;2023-08-30T10:38:57;1.60;;;1.42;;
43650;SDS011;29247;50.944;5.382;2023-08-30T10:41:24;2.08;;;1.48;;
43650;SDS011;29247;50.944;5.382;2023-08-30T10:43:51;2.10;;;1.70;;
43650;SDS011;29247;50.944;5.382;2023-08-30T10:46:32;2.40;;;1.40;;
43650;SDS011;29247;50.944;5.382;2023-08-30T10:49:09;5.13;;;1.57;;
43650;SDS011;29247;50.944;5.382;2023-08-30T10:51:40;1.95;;;1.50;;
43650;SDS011;29247;50.944;5.382;2023-08-30T10:54:16;1.63;;;1.50;;
43650;SDS011;29247;50.944;5.382;2023-08-30T10:56:53;5.20;;;1.65;;
43650;SDS011;29247;50.944;5.382;2023-08-30T10:59:22;2.30;;;1.67;;
43650;SDS011;29247;50.944;5.382;2023-08-30T11:01:51;2.67;;;1.40;;
43650;SDS011;29247;50.944;5.382;2023-08-30T11:04:17;2.30;;;1.60;;
43650;SDS011;29247;50.944;5.382;2023-08-30T11:06:44;2.55;;;1.48;;
43650;SDS011;29247;50.944;5.382;2023-08-30T11:09:17;2.17;;;1.38;;
43650;SDS011;29247;50.944;5.382;2023-08-30T11:11:47;3.72;;;1.40;;
43650;SDS011;29247;50.944;5.382;2023-08-30T11:14:16;3.08;;;1.20;;
43650;SDS011;29247;50.944;5.382;2023-08-30T11:16:42;1.27;;;1.10;;
43650;SDS011;29247;50.944;5.382;2023-08-30T11:19:08;1.17;;;1.00;;
43650;SDS011;29247;50.944;5.382;2023-08-30T11:21:38;1.27;;;1.10;;
43650;SDS011;29247;50.944;5.382;2023-08-30T11:24:05;3.67;;;1.23;;
43650;SDS011;29247;50.944;5.382;2023-08-30T11:26:31;3.97;;;1.00;;
43650;SDS011;29247;50.944;5.382;2023-08-30T11:28:57;2.03;;;1.00;;
43650;SDS011;29247;50.944;5.382;2023-08-30T11:31:28;2.10;;;0.90;;
43650;SDS011;29247;50.944;5.382;2023-08-30T11:33:55;1.63;;;1.23;;
43650;SDS011;29247;50.944;5.382;2023-08-30T11:36:22;2.58;;;1.05;;
43650;SDS011;29247;50.944;5.382;2023-08-30T11:38:51;1.92;;;1.00;;
43650;SDS011;29247;50.944;5.382;2023-08-30T11:41:19;1.30;;;1.00;;
43650;SDS011;29247;50.944;5.382;2023-08-30T11:43:45;1.42;;;1.30;;
43650;SDS011;29247;50.944;5.382;2023-08-30T11:46:13;1.98;;;1.10;;
43650;SDS011;29247;50.944;5.382;2023-08-30T11:48:39;1.45;;;1.23;;
43650;SDS011;29247;50.944;5.382;2023-08-30T11:51:08;1.30;;;1.20;;
43650;SDS011;29247;50.944;5.382;2023-08-30T11:53:34;1.88;;;1.50;;
43650;SDS011;29247;50.944;5.382;2023-08-30T11:56:01;2.22;;;1.10;;
43650;SDS011;29247;50.944;5.382;2023-08-30T11:58:32;2.10;;;1.88;;
43650;SDS011;29247;50.944;5.382;2023-08-30T12:01:02;1.67;;;1.17;;
43650;SDS011;29247;50.944;5.382;2023-08-30T12:03:29;1.52;;;1.33;;
43650;SDS011;29247;50.944;5.382;2023-08-30T12:05:59;3.22;;;1.30;;
43650;SDS011;29247;50.944;5.382;2023-08-30T12:08:29;1.73;;;1.40;;
43650;SDS011;29247;50.944;5.382;2023-08-30T12:10:56;2.35;;;1.63;;
43650;SDS011;29247;50.944;5.382;2023-08-30T12:15:53;3.78;;;1.75;;
43650;SDS011;29247;50.944;5.382;2023-08-30T12:23:23;3.95;;;1.80;;
43650;SDS011;29247;50.944;5.382;2023-08-30T12:25:59;1.67;;;1.50;;
43650;SDS011;29247;50.944;5.382;2023-08-30T12:28:26;1.90;;;1.55;;
43650;SDS011;29247;50.944;5.382;2023-08-30T12:30:52;1.92;;;1.60;;
43650;SDS011;29247;50.944;5.382;2023-08-30T12:33:21;2.13;;;1.55;;
43650;SDS011;29247;50.944;5.382;2023-08-30T12:35:47;2.88;;;2.05;;
43650;SDS011;29247;50.944;5.382;2023-08-30T12:38:13;2.58;;;2.17;;
43650;SDS011;29247;50.944;5.382;2023-08-30T12:40:44;3.27;;;2.30;;
43650;SDS011;29247;50.944;5.382;2023-08-30T12:43:14;5.30;;;2.53;;
43650;SDS011;29247;50.944;5.382;2023-08-30T12:45:40;3.67;;;2.42;;
43650;SDS011;29247;50.944;5.382;2023-08-30T12:48:09;2.47;;;2.28;;
43650;SDS011;29247;50.944;5.382;2023-08-30T12:50:36;3.13;;;2.13;;
43650;SDS011;29247;50.944;5.382;2023-08-30T12:53:06;2.88;;;2.40;;
43650;SDS011;29247;50.944;5.382;2023-08-30T12:55:32;3.65;;;2.53;;
43650;SDS011;29247;50.944;5.382;2023-08-30T12:58:01;6.20;;;2.47;;
43650;SDS011;29247;50.944;5.382;2023-08-30T13:00:27;2.83;;;2.22;;
43650;SDS011;29247;50.944;5.382;2023-08-30T13:02:53;2.20;;;1.80;;
43650;SDS011;29247;50.944;5.382;2023-08-30T13:05:20;2.88;;;2.08;;
43650;SDS011;29247;50.944;5.382;2023-08-30T13:07:51;4.72;;;2.50;;
43650;SDS011;29247;50.944;5.382;2023-08-30T13:10:17;4.22;;;2.53;;
43650;SDS011;29247;50.944;5.382;2023-08-30T13:12:43;2.80;;;2.20;;
43650;SDS011;29247;50.944;5.382;2023-08-30T13:15:09;5.45;;;2.80;;
43650;SDS011;29247;50.944;5.382;2023-08-30T13:17:38;5.45;;;2.30;;
43650;SDS011;29247;50.944;5.382;2023-08-30T13:20:06;4.80;;;2.13;;
43650;SDS011;29247;50.944;5.382;2023-08-30T13:22:34;5.38;;;2.50;;
43650;SDS011;29247;50.944;5.382;2023-08-30T13:24:59;4.90;;;2.50;;
43650;SDS011;29247;50.944;5.382;2023-08-30T13:27:28;2.90;;;2.45;;
43650;SDS011;29247;50.944;5.382;2023-08-30T13:29:53;3.78;;;2.22;;
43650;SDS011;29247;50.944;5.382;2023-08-30T13:32:19;4.25;;;3.15;;
43650;SDS011;29247;50.944;5.382;2023-08-30T13:34:47;5.53;;;2.65;;
43650;SDS011;29247;50.944;5.382;2023-08-30T13:37:13;3.47;;;2.47;;
43650;SDS011;29247;50.944;5.382;2023-08-30T13:39:39;4.00;;;3.15;;
43650;SDS011;29247;50.944;5.382;2023-08-30T13:42:05;3.72;;;3.10;;
43650;SDS011;29247;50.944;5.382;2023-08-30T13:44:31;6.25;;;3.83;;
43650;SDS011;29247;50.944;5.382;2023-08-30T13:47:02;3.95;;;3.20;;
43650;SDS011;29247;50.944;5.382;2023-08-30T13:49:29;6.55;;;3.28;;
43650;SDS011;29247;50.944;5.382;2023-08-30T13:51:55;4.93;;;2.70;;
43650;SDS011;29247;50.944;5.382;2023-08-30T13:54:22;7.32;;;2.53;;
43650;SDS011;29247;50.944;5.382;2023-08-30T13:56:47;6.35;;;2.22;;
43650;SDS011;29247;50.944;5.382;2023-08-30T13:59:13;7.93;;;2.58;;
43650;SDS011;29247;50.944;5.382;2023-08-30T14:01:39;3.90;;;2.58;;
43650;SDS011;29247;50.944;5.382;2023-08-30T14:04:05;5.68;;;2.28;;
43650;SDS011;29247;50.944;5.382;2023-08-30T14:06:31;2.95;;;1.90;;
43650;SDS011;29247;50.944;5.382;2023-08-30T14:08:57;5.70;;;2.42;;
43650;SDS011;29247;50.944;5.382;2023-08-30T14:11:23;5.57;;;2.10;;
43650;SDS011;29247;50.944;5.382;2023-08-30T14:13:48;4.72;;;1.45;;
43650;SDS011;29247;50.944;5.382;2023-08-30T14:16:14;3.55;;;1.65;;
43650;SDS011;29247;50.944;5.382;2023-08-30T14:18:43;6.85;;;1.55;;
43650;SDS011;29247;50.944;5.382;2023-08-30T14:21:12;2.08;;;1.38;;
43650;SDS011;29247;50.944;5.382;2023-08-30T14:23:38;5.50;;;1.85;;
43650;SDS011;29247;50.944;5.382;2023-08-30T14:28:38;3.55;;;1.40;;
43650;SDS011;29247;50.944;5.382;2023-08-30T14:31:08;4.20;;;1.35;;
43650;SDS011;29247;50.944;5.382;2023-08-30T14:33:35;5.22;;;1.20;;
43650;SDS011;29247;50.944;5.382;2023-08-30T14:36:10;4.63;;;1.30;;
43650;SDS011;29247;50.944;5.382;2023-08-30T14:38:38;3.70;;;1.10;;
43650;SDS011;29247;50.944;5.382;2023-08-30T14:41:05;3.30;;;1.38;;
43650;SDS011;29247;50.944;5.382;2023-08-30T14:43:34;2.30;;;1.35;;
43650;SDS011;29247;50.944;5.382;2023-08-30T14:46:00;5.90;;;1.20;;
43650;SDS011;29247;50.944;5.382;2023-08-30T14:48:31;3.45;;;1.10;;
43650;SDS011;29247;50.944;5.382;2023-08-30T14:51:00;2.25;;;0.98;;
43650;SDS011;29247;50.944;5.382;2023-08-30T14:53:30;2.53;;;1.10;;
43650;SDS011;29247;50.944;5.382;2023-08-30T14:55:58;4.03;;;1.00;;
43650;SDS011;29247;50.944;5.382;2023-08-30T14:58:23;5.05;;;1.23;;
43650;SDS011;29247;50.944;5.382;2023-08-30T15:00:49;3.85;;;1.15;;
43650;SDS011;29247;50.944;5.382;2023-08-30T15:03:16;3.25;;;0.98;;
43650;SDS011;29247;50.944;5.382;2023-08-30T15:05:42;2.92;;;1.15;;
43650;SDS011;29247;50.944;5.382;2023-08-30T15:08:17;2.58;;;1.10;;
43650;SDS011;29247;50.944;5.382;2023-08-30T15:10:45;3.80;;;1.30;;
43650;SDS011;29247;50.944;5.382;2023-08-30T15:13:16;4.43;;;1.52;;
43650;SDS011;29247;50.944;5.382;2023-08-30T15:15:42;2.78;;;1.05;;